Terminal Aerodrome Forecast
Issued by NWS

Home | Current Version | Previous Version | Text Only | Print | Product List | Glossary On
Versions: 1 2 3 4 5 6 7 8 9 10 11 12 13 14 15 16 17
000
FTUS42 TJSJ 241100
TAFKPK
TAF
TKPK 241125Z 2412/2512 07017KT P6SM VCSH SCT018
      TEMPO 2412/2414 5SM SHRA BKN018
     FM241500 08018G26KT P6SM FEW020
     FM242300 09008KT P6SM FEW020=

USA.gov is the U.S. government's official web portal to all federal, state and local government web resources and services.